sensor_id;sensor_type;location;lat;lon;timestamp;P1;durP1;ratioP1;P2;durP2;ratioP2
46355;SDS011;32066;49.474;11.106;2023-11-19T00:00:28;5.18;;;2.42;;
46355;SDS011;32066;49.474;11.106;2023-11-19T00:02:57;4.60;;;2.25;;
46355;SDS011;32066;49.474;11.106;2023-11-19T00:05:26;3.85;;;2.22;;
46355;SDS011;32066;49.474;11.106;2023-11-19T00:07:55;4.28;;;2.33;;
46355;SDS011;32066;49.474;11.106;2023-11-19T00:10:24;4.72;;;2.45;;
46355;SDS011;32066;49.474;11.106;2023-11-19T00:12:52;5.78;;;2.75;;
46355;SDS011;32066;49.474;11.106;2023-11-19T00:15:24;4.65;;;2.65;;
46355;SDS011;32066;49.474;11.106;2023-11-19T00:17:53;4.68;;;2.40;;
46355;SDS011;32066;49.474;11.106;2023-11-19T00:20:22;4.75;;;2.50;;
46355;SDS011;32066;49.474;11.106;2023-11-19T00:22:50;4.30;;;2.85;;
46355;SDS011;32066;49.474;11.106;2023-11-19T00:25:20;5.15;;;2.50;;
46355;SDS011;32066;49.474;11.106;2023-11-19T00:27:49;4.53;;;2.65;;
46355;SDS011;32066;49.474;11.106;2023-11-19T00:30:18;6.22;;;2.28;;
46355;SDS011;32066;49.474;11.106;2023-11-19T00:32:50;5.05;;;2.53;;
46355;SDS011;32066;49.474;11.106;2023-11-19T00:35:19;4.55;;;2.50;;
46355;SDS011;32066;49.474;11.106;2023-11-19T00:37:48;4.93;;;2.70;;
46355;SDS011;32066;49.474;11.106;2023-11-19T00:40:19;6.10;;;2.65;;
46355;SDS011;32066;49.474;11.106;2023-11-19T00:42:48;4.18;;;2.60;;
46355;SDS011;32066;49.474;11.106;2023-11-19T00:45:17;5.93;;;2.67;;
46355;SDS011;32066;49.474;11.106;2023-11-19T00:47:53;5.10;;;2.53;;
46355;SDS011;32066;49.474;11.106;2023-11-19T00:50:24;4.70;;;2.70;;
46355;SDS011;32066;49.474;11.106;2023-11-19T00:52:53;6.43;;;2.78;;
46355;SDS011;32066;49.474;11.106;2023-11-19T00:55:22;4.68;;;2.65;;
46355;SDS011;32066;49.474;11.106;2023-11-19T00:57:50;4.35;;;2.28;;
46355;SDS011;32066;49.474;11.106;2023-11-19T01:00:21;4.63;;;2.63;;
46355;SDS011;32066;49.474;11.106;2023-11-19T01:02:55;5.22;;;2.85;;
46355;SDS011;32066;49.474;11.106;2023-11-19T01:05:25;4.20;;;2.40;;
46355;SDS011;32066;49.474;11.106;2023-11-19T01:07:54;4.40;;;2.63;;
46355;SDS011;32066;49.474;11.106;2023-11-19T01:10:22;5.28;;;2.67;;
46355;SDS011;32066;49.474;11.106;2023-11-19T01:12:51;4.55;;;2.50;;
46355;SDS011;32066;49.474;11.106;2023-11-19T01:15:20;5.63;;;2.60;;
46355;SDS011;32066;49.474;11.106;2023-11-19T01:17:49;5.72;;;2.15;;
46355;SDS011;32066;49.474;11.106;2023-11-19T01:20:20;3.90;;;2.08;;
46355;SDS011;32066;49.474;11.106;2023-11-19T01:22:49;5.03;;;2.70;;
46355;SDS011;32066;49.474;11.106;2023-11-19T01:25:22;5.45;;;2.50;;
46355;SDS011;32066;49.474;11.106;2023-11-19T01:27:51;4.15;;;2.60;;
46355;SDS011;32066;49.474;11.106;2023-11-19T01:30:21;4.40;;;2.42;;
46355;SDS011;32066;49.474;11.106;2023-11-19T01:32:51;4.60;;;2.67;;
46355;SDS011;32066;49.474;11.106;2023-11-19T01:35:22;4.60;;;2.42;;
46355;SDS011;32066;49.474;11.106;2023-11-19T01:37:51;6.32;;;2.35;;
46355;SDS011;32066;49.474;11.106;2023-11-19T01:40:20;4.00;;;2.35;;
46355;SDS011;32066;49.474;11.106;2023-11-19T01:42:48;4.70;;;2.65;;
46355;SDS011;32066;49.474;11.106;2023-11-19T01:45:21;3.78;;;2.38;;
46355;SDS011;32066;49.474;11.106;2023-11-19T01:47:57;4.25;;;2.38;;
46355;SDS011;32066;49.474;11.106;2023-11-19T01:50:31;4.10;;;2.33;;
46355;SDS011;32066;49.474;11.106;2023-11-19T01:53:00;4.18;;;2.35;;
46355;SDS011;32066;49.474;11.106;2023-11-19T01:55:29;5.20;;;2.60;;
46355;SDS011;32066;49.474;11.106;2023-11-19T01:57:59;6.57;;;2.70;;
46355;SDS011;32066;49.474;11.106;2023-11-19T02:00:29;4.07;;;2.50;;
46355;SDS011;32066;49.474;11.106;2023-11-19T02:02:59;5.10;;;2.58;;
46355;SDS011;32066;49.474;11.106;2023-11-19T02:05:31;5.35;;;2.60;;
46355;SDS011;32066;49.474;11.106;2023-11-19T02:08:00;4.53;;;2.55;;
46355;SDS011;32066;49.474;11.106;2023-11-19T02:10:29;6.38;;;2.58;;
46355;SDS011;32066;49.474;11.106;2023-11-19T02:12:59;4.18;;;2.47;;
46355;SDS011;32066;49.474;11.106;2023-11-19T02:15:30;4.65;;;2.78;;
46355;SDS011;32066;49.474;11.106;2023-11-19T02:20:49;4.35;;;2.58;;
46355;SDS011;32066;49.474;11.106;2023-11-19T02:23:19;6.70;;;2.88;;
46355;SDS011;32066;49.474;11.106;2023-11-19T02:25:52;4.65;;;2.95;;
46355;SDS011;32066;49.474;11.106;2023-11-19T02:28:30;5.45;;;2.60;;
46355;SDS011;32066;49.474;11.106;2023-11-19T02:30:59;4.43;;;2.50;;
46355;SDS011;32066;49.474;11.106;2023-11-19T02:33:29;4.28;;;2.72;;
46355;SDS011;32066;49.474;11.106;2023-11-19T02:35:59;4.68;;;2.78;;
46355;SDS011;32066;49.474;11.106;2023-11-19T02:38:28;4.30;;;2.50;;
46355;SDS011;32066;49.474;11.106;2023-11-19T02:40:57;5.18;;;3.10;;
46355;SDS011;32066;49.474;11.106;2023-11-19T02:43:30;4.95;;;2.70;;
46355;SDS011;32066;49.474;11.106;2023-11-19T02:46:00;5.25;;;3.47;;
46355;SDS011;32066;49.474;11.106;2023-11-19T02:48:31;4.70;;;2.92;;
46355;SDS011;32066;49.474;11.106;2023-11-19T02:51:00;4.70;;;2.80;;
46355;SDS011;32066;49.474;11.106;2023-11-19T02:53:29;5.70;;;2.80;;
46355;SDS011;32066;49.474;11.106;2023-11-19T02:55:58;4.60;;;2.80;;
46355;SDS011;32066;49.474;11.106;2023-11-19T02:58:39;5.03;;;3.20;;
46355;SDS011;32066;49.474;11.106;2023-11-19T03:01:10;8.32;;;2.95;;
46355;SDS011;32066;49.474;11.106;2023-11-19T03:03:48;4.85;;;2.80;;
46355;SDS011;32066;49.474;11.106;2023-11-19T03:06:19;4.45;;;2.67;;
46355;SDS011;32066;49.474;11.106;2023-11-19T03:08:49;4.75;;;2.80;;
46355;SDS011;32066;49.474;11.106;2023-11-19T03:11:18;4.53;;;3.00;;
46355;SDS011;32066;49.474;11.106;2023-11-19T03:13:49;4.20;;;2.63;;
46355;SDS011;32066;49.474;11.106;2023-11-19T03:16:18;4.68;;;3.10;;
46355;SDS011;32066;49.474;11.106;2023-11-19T03:18:46;5.05;;;2.80;;
46355;SDS011;32066;49.474;11.106;2023-11-19T03:21:15;5.25;;;2.88;;
46355;SDS011;32066;49.474;11.106;2023-11-19T03:23:44;4.57;;;2.95;;
46355;SDS011;32066;49.474;11.106;2023-11-19T03:26:13;4.82;;;3.05;;
46355;SDS011;32066;49.474;11.106;2023-11-19T03:28:41;5.13;;;3.05;;
46355;SDS011;32066;49.474;11.106;2023-11-19T03:31:13;4.30;;;2.60;;
46355;SDS011;32066;49.474;11.106;2023-11-19T03:33:42;4.47;;;2.90;;
46355;SDS011;32066;49.474;11.106;2023-11-19T03:36:08;5.18;;;3.42;;
46355;SDS011;32066;49.474;11.106;2023-11-19T03:38:38;4.82;;;3.10;;
46355;SDS011;32066;49.474;11.106;2023-11-19T03:41:10;6.35;;;3.05;;
46355;SDS011;32066;49.474;11.106;2023-11-19T03:43:39;4.80;;;3.00;;
46355;SDS011;32066;49.474;11.106;2023-11-19T03:46:20;6.60;;;2.90;;
46355;SDS011;32066;49.474;11.106;2023-11-19T03:48:49;5.38;;;3.40;;
46355;SDS011;32066;49.474;11.106;2023-11-19T03:51:18;5.10;;;3.25;;
46355;SDS011;32066;49.474;11.106;2023-11-19T03:53:47;5.00;;;3.25;;
46355;SDS011;32066;49.474;11.106;2023-11-19T03:56:15;8.90;;;3.60;;
46355;SDS011;32066;49.474;11.106;2023-11-19T03:58:46;6.57;;;3.47;;
46355;SDS011;32066;49.474;11.106;2023-11-19T04:01:14;5.22;;;3.70;;
46355;SDS011;32066;49.474;11.106;2023-11-19T04:03:46;5.32;;;3.65;;
46355;SDS011;32066;49.474;11.106;2023-11-19T04:06:14;6.25;;;4.18;;
46355;SDS011;32066;49.474;11.106;2023-11-19T04:08:43;8.70;;;4.93;;
46355;SDS011;32066;49.474;11.106;2023-11-19T04:11:12;6.10;;;4.43;;
46355;SDS011;32066;49.474;11.106;2023-11-19T04:13:40;8.95;;;4.28;;
46355;SDS011;32066;49.474;11.106;2023-11-19T04:16:10;6.80;;;4.82;;
46355;SDS011;32066;49.474;11.106;2023-11-19T04:18:40;7.55;;;4.40;;
46355;SDS011;32066;49.474;11.106;2023-11-19T04:21:11;6.68;;;4.57;;
46355;SDS011;32066;49.474;11.106;2023-11-19T04:23:40;7.35;;;4.82;;
46355;SDS011;32066;49.474;11.106;2023-11-19T04:26:11;6.68;;;4.53;;
46355;SDS011;32066;49.474;11.106;2023-11-19T04:28:40;7.35;;;4.72;;
46355;SDS011;32066;49.474;11.106;2023-11-19T04:31:09;8.55;;;5.20;;
46355;SDS011;32066;49.474;11.106;2023-11-19T04:33:38;8.20;;;4.60;;
46355;SDS011;32066;49.474;11.106;2023-11-19T04:36:07;6.50;;;4.70;;
46355;SDS011;32066;49.474;11.106;2023-11-19T04:38:39;6.85;;;5.03;;
46355;SDS011;32066;49.474;11.106;2023-11-19T04:41:08;7.22;;;5.25;;
46355;SDS011;32066;49.474;11.106;2023-11-19T04:43:36;8.73;;;5.53;;
46355;SDS011;32066;49.474;11.106;2023-11-19T04:46:05;6.68;;;4.68;;
46355;SDS011;32066;49.474;11.106;2023-11-19T04:48:35;10.20;;;5.50;;
46355;SDS011;32066;49.474;11.106;2023-11-19T04:51:04;7.22;;;5.07;;
46355;SDS011;32066;49.474;11.106;2023-11-19T04:53:34;7.13;;;5.22;;
46355;SDS011;32066;49.474;11.106;2023-11-19T04:56:10;6.82;;;4.95;;
46355;SDS011;32066;49.474;11.106;2023-11-19T04:58:40;6.80;;;5.18;;
46355;SDS011;32066;49.474;11.106;2023-11-19T05:01:13;7.78;;;5.15;;
46355;SDS011;32066;49.474;11.106;2023-11-19T05:03:43;6.30;;;4.30;;
46355;SDS011;32066;49.474;11.106;2023-11-19T05:06:13;7.85;;;5.43;;
46355;SDS011;32066;49.474;11.106;2023-11-19T05:08:41;7.47;;;4.78;;
46355;SDS011;32066;49.474;11.106;2023-11-19T05:11:13;7.18;;;5.13;;
46355;SDS011;32066;49.474;11.106;2023-11-19T05:13:43;8.27;;;5.45;;
46355;SDS011;32066;49.474;11.106;2023-11-19T05:16:13;7.32;;;5.03;;
46355;SDS011;32066;49.474;11.106;2023-11-19T05:18:42;7.38;;;5.40;;
46355;SDS011;32066;49.474;11.106;2023-11-19T05:21:11;8.00;;;5.57;;
46355;SDS011;32066;49.474;11.106;2023-11-19T05:23:40;8.00;;;5.57;;
46355;SDS011;32066;49.474;11.106;2023-11-19T05:26:09;7.10;;;5.35;;
46355;SDS011;32066;49.474;11.106;2023-11-19T05:28:40;7.22;;;5.18;;
46355;SDS011;32066;49.474;11.106;2023-11-19T05:31:09;8.70;;;5.40;;
46355;SDS011;32066;49.474;11.106;2023-11-19T05:33:38;8.18;;;5.68;;
46355;SDS011;32066;49.474;11.106;2023-11-19T05:36:06;8.13;;;5.20;;
46355;SDS011;32066;49.474;11.106;2023-11-19T05:38:36;7.68;;;5.43;;
46355;SDS011;32066;49.474;11.106;2023-11-19T05:41:04;7.43;;;5.43;;
46355;SDS011;32066;49.474;11.106;2023-11-19T05:43:33;8.63;;;5.50;;
46355;SDS011;32066;49.474;11.106;2023-11-19T05:46:05;8.38;;;6.53;;
46355;SDS011;32066;49.474;11.106;2023-11-19T05:48:34;9.32;;;6.22;;
46355;SDS011;32066;49.474;11.106;2023-11-19T05:51:03;8.35;;;5.75;;
46355;SDS011;32066;49.474;11.106;2023-11-19T05:53:32;10.02;;;6.55;;
46355;SDS011;32066;49.474;11.106;2023-11-19T05:56:01;7.80;;;5.72;;
46355;SDS011;32066;49.474;11.106;2023-11-19T05:58:30;8.93;;;6.35;;
46355;SDS011;32066;49.474;11.106;2023-11-19T06:00:58;8.13;;;5.80;;
46355;SDS011;32066;49.474;11.106;2023-11-19T06:03:31;9.07;;;5.75;;
46355;SDS011;32066;49.474;11.106;2023-11-19T06:06:00;14.88;;;6.45;;
46355;SDS011;32066;49.474;11.106;2023-11-19T06:08:28;9.05;;;6.22;;
46355;SDS011;32066;49.474;11.106;2023-11-19T06:10:57;7.32;;;5.60;;
46355;SDS011;32066;49.474;11.106;2023-11-19T06:13:26;7.25;;;5.53;;
46355;SDS011;32066;49.474;11.106;2023-11-19T06:15:56;12.02;;;6.78;;
46355;SDS011;32066;49.474;11.106;2023-11-19T06:18:24;8.45;;;5.57;;
46355;SDS011;32066;49.474;11.106;2023-11-19T06:20:55;8.23;;;6.07;;
46355;SDS011;32066;49.474;11.106;2023-11-19T06:23:24;8.38;;;6.00;;
46355;SDS011;32066;49.474;11.106;2023-11-19T06:25:53;7.85;;;5.47;;
46355;SDS011;32066;49.474;11.106;2023-11-19T06:28:21;8.52;;;5.38;;
46355;SDS011;32066;49.474;11.106;2023-11-19T06:30:50;8.07;;;6.05;;
46355;SDS011;32066;49.474;11.106;2023-11-19T06:33:18;11.05;;;6.13;;
46355;SDS011;32066;49.474;11.106;2023-11-19T06:35:47;8.50;;;6.28;;
46355;SDS011;32066;49.474;11.106;2023-11-19T06:38:18;9.40;;;6.10;;
46355;SDS011;32066;49.474;11.106;2023-11-19T06:40:47;8.98;;;6.50;;
46355;SDS011;32066;49.474;11.106;2023-11-19T06:43:16;9.25;;;6.35;;
46355;SDS011;32066;49.474;11.106;2023-11-19T06:45:44;8.98;;;6.03;;
46355;SDS011;32066;49.474;11.106;2023-11-19T06:48:13;9.45;;;6.53;;
46355;SDS011;32066;49.474;11.106;2023-11-19T06:50:42;9.73;;;6.68;;
46355;SDS011;32066;49.474;11.106;2023-11-19T06:53:10;8.35;;;6.07;;
46355;SDS011;32066;49.474;11.106;2023-11-19T06:55:42;7.88;;;5.82;;
46355;SDS011;32066;49.474;11.106;2023-11-19T06:58:11;8.07;;;5.55;;
46355;SDS011;32066;49.474;11.106;2023-11-19T07:00:40;8.60;;;6.05;;
46355;SDS011;32066;49.474;11.106;2023-11-19T07:03:08;9.05;;;6.28;;
46355;SDS011;32066;49.474;11.106;2023-11-19T07:05:38;9.52;;;6.13;;
46355;SDS011;32066;49.474;11.106;2023-11-19T07:08:06;9.15;;;6.22;;
46355;SDS011;32066;49.474;11.106;2023-11-19T07:10:35;9.10;;;6.32;;
46355;SDS011;32066;49.474;11.106;2023-11-19T07:13:06;10.02;;;6.00;;
46355;SDS011;32066;49.474;11.106;2023-11-19T07:15:35;7.78;;;5.65;;
46355;SDS011;32066;49.474;11.106;2023-11-19T07:18:03;8.75;;;5.88;;
46355;SDS011;32066;49.474;11.106;2023-11-19T07:20:32;8.68;;;5.80;;
46355;SDS011;32066;49.474;11.106;2023-11-19T07:23:01;8.10;;;5.45;;
46355;SDS011;32066;49.474;11.106;2023-11-19T07:25:29;9.68;;;5.65;;
46355;SDS011;32066;49.474;11.106;2023-11-19T07:28:00;8.85;;;5.18;;
46355;SDS011;32066;49.474;11.106;2023-11-19T07:30:32;7.80;;;5.25;;
46355;SDS011;32066;49.474;11.106;2023-11-19T07:33:01;8.65;;;5.20;;
46355;SDS011;32066;49.474;11.106;2023-11-19T07:35:31;7.68;;;5.07;;
46355;SDS011;32066;49.474;11.106;2023-11-19T07:38:00;7.07;;;5.00;;
46355;SDS011;32066;49.474;11.106;2023-11-19T07:40:29;6.90;;;4.93;;
46355;SDS011;32066;49.474;11.106;2023-11-19T07:42:57;7.13;;;4.70;;
46355;SDS011;32066;49.474;11.106;2023-11-19T07:45:26;7.55;;;4.70;;
46355;SDS011;32066;49.474;11.106;2023-11-19T07:47:57;7.30;;;4.53;;
46355;SDS011;32066;49.474;11.106;2023-11-19T07:50:27;6.30;;;3.72;;
46355;SDS011;32066;49.474;11.106;2023-11-19T07:52:57;6.70;;;3.90;;
46355;SDS011;32066;49.474;11.106;2023-11-19T07:55:25;6.65;;;3.85;;
46355;SDS011;32066;49.474;11.106;2023-11-19T07:57:54;6.38;;;3.75;;
46355;SDS011;32066;49.474;11.106;2023-11-19T08:00:23;6.40;;;4.13;;
46355;SDS011;32066;49.474;11.106;2023-11-19T08:02:52;8.05;;;4.03;;
46355;SDS011;32066;49.474;11.106;2023-11-19T08:05:25;6.85;;;3.88;;
46355;SDS011;32066;49.474;11.106;2023-11-19T08:07:53;6.50;;;3.40;;
46355;SDS011;32066;49.474;11.106;2023-11-19T08:10:22;5.78;;;3.17;;
46355;SDS011;32066;49.474;11.106;2023-11-19T08:12:51;5.78;;;3.50;;
46355;SDS011;32066;49.474;11.106;2023-11-19T08:15:19;6.05;;;3.47;;
46355;SDS011;32066;49.474;11.106;2023-11-19T08:17:48;5.82;;;3.47;;
46355;SDS011;32066;49.474;11.106;2023-11-19T08:20:17;7.85;;;3.42;;
46355;SDS011;32066;49.474;11.106;2023-11-19T08:22:48;6.60;;;3.70;;
46355;SDS011;32066;49.474;11.106;2023-11-19T08:25:17;5.38;;;2.83;;
46355;SDS011;32066;49.474;11.106;2023-11-19T08:27:45;5.15;;;3.22;;
46355;SDS011;32066;49.474;11.106;2023-11-19T08:30:14;5.10;;;2.42;;
46355;SDS011;32066;49.474;11.106;2023-11-19T08:32:43;5.63;;;2.40;;
46355;SDS011;32066;49.474;11.106;2023-11-19T08:35:11;4.97;;;1.65;;
46355;SDS011;32066;49.474;11.106;2023-11-19T08:37:41;4.45;;;1.83;;
46355;SDS011;32066;49.474;11.106;2023-11-19T08:40:13;5.22;;;1.75;;
46355;SDS011;32066;49.474;11.106;2023-11-19T08:42:42;4.40;;;1.50;;
46355;SDS011;32066;49.474;11.106;2023-11-19T08:45:11;3.28;;;1.50;;
46355;SDS011;32066;49.474;11.106;2023-11-19T08:47:41;4.60;;;1.75;;
46355;SDS011;32066;49.474;11.106;2023-11-19T08:50:10;3.13;;;1.20;;
46355;SDS011;32066;49.474;11.106;2023-11-19T08:52:39;6.13;;;2.03;;
46355;SDS011;32066;49.474;11.106;2023-11-19T08:55:08;3.90;;;1.55;;
46355;SDS011;32066;49.474;11.106;2023-11-19T08:57:41;3.50;;;1.60;;
46355;SDS011;32066;49.474;11.106;2023-11-19T09:00:10;4.13;;;1.80;;
46355;SDS011;32066;49.474;11.106;2023-11-19T09:02:40;8.60;;;2.90;;
46355;SDS011;32066;49.474;11.106;2023-11-19T09:05:08;6.78;;;3.05;;
46355;SDS011;32066;49.474;11.106;2023-11-19T09:07:38;10.32;;;3.55;;
46355;SDS011;32066;49.474;11.106;2023-11-19T09:10:07;5.38;;;2.15;;
46355;SDS011;32066;49.474;11.106;2023-11-19T09:12:36;5.05;;;1.65;;
46355;SDS011;32066;49.474;11.106;2023-11-19T09:15:08;5.38;;;1.90;;
46355;SDS011;32066;49.474;11.106;2023-11-19T09:17:38;3.63;;;1.65;;
46355;SDS011;32066;49.474;11.106;2023-11-19T09:20:07;5.35;;;1.40;;
46355;SDS011;32066;49.474;11.106;2023-11-19T09:22:40;4.40;;;1.60;;
46355;SDS011;32066;49.474;11.106;2023-11-19T09:25:09;3.47;;;1.30;;
46355;SDS011;32066;49.474;11.106;2023-11-19T09:27:41;6.00;;;1.50;;
46355;SDS011;32066;49.474;11.106;2023-11-19T09:30:13;4.68;;;1.30;;
46355;SDS011;32066;49.474;11.106;2023-11-19T09:32:42;5.57;;;1.80;;
46355;SDS011;32066;49.474;11.106;2023-11-19T09:35:10;3.80;;;1.30;;
46355;SDS011;32066;49.474;11.106;2023-11-19T09:37:40;5.18;;;1.48;;
46355;SDS011;32066;49.474;11.106;2023-11-19T09:40:08;3.22;;;1.25;;
46355;SDS011;32066;49.474;11.106;2023-11-19T09:42:40;4.20;;;1.20;;
46355;SDS011;32066;49.474;11.106;2023-11-19T09:45:15;5.22;;;1.77;;
46355;SDS011;32066;49.474;11.106;2023-11-19T09:47:45;6.00;;;1.10;;
46355;SDS011;32066;49.474;11.106;2023-11-19T09:50:16;4.85;;;1.20;;
46355;SDS011;32066;49.474;11.106;2023-11-19T09:52:46;3.55;;;1.00;;
46355;SDS011;32066;49.474;11.106;2023-11-19T09:55:16;4.75;;;1.63;;
46355;SDS011;32066;49.474;11.106;2023-11-19T09:57:46;4.72;;;1.92;;
46355;SDS011;32066;49.474;11.106;2023-11-19T10:00:19;4.55;;;1.30;;
46355;SDS011;32066;49.474;11.106;2023-11-19T10:02:49;4.93;;;2.00;;
46355;SDS011;32066;49.474;11.106;2023-11-19T10:05:18;5.90;;;1.20;;
46355;SDS011;32066;49.474;11.106;2023-11-19T10:07:49;5.68;;;1.48;;
46355;SDS011;32066;49.474;11.106;2023-11-19T10:10:20;4.25;;;1.30;;
46355;SDS011;32066;49.474;11.106;2023-11-19T10:12:50;4.22;;;1.20;;
46355;SDS011;32066;49.474;11.106;2023-11-19T10:15:22;8.02;;;2.28;;
46355;SDS011;32066;49.474;11.106;2023-11-19T10:17:52;6.25;;;1.65;;
46355;SDS011;32066;49.474;11.106;2023-11-19T10:20:22;4.80;;;1.45;;
46355;SDS011;32066;49.474;11.106;2023-11-19T10:22:52;5.57;;;1.55;;
46355;SDS011;32066;49.474;11.106;2023-11-19T10:25:21;5.03;;;1.52;;
46355;SDS011;32066;49.474;11.106;2023-11-19T10:27:52;4.15;;;1.38;;
46355;SDS011;32066;49.474;11.106;2023-11-19T10:30:24;5.55;;;1.30;;
46355;SDS011;32066;49.474;11.106;2023-11-19T10:33:04;4.55;;;1.25;;
46355;SDS011;32066;49.474;11.106;2023-11-19T10:35:34;5.60;;;1.40;;
46355;SDS011;32066;49.474;11.106;2023-11-19T10:38:13;4.18;;;1.55;;
46355;SDS011;32066;49.474;11.106;2023-11-19T10:40:43;4.95;;;1.50;;
46355;SDS011;32066;49.474;11.106;2023-11-19T10:43:12;4.95;;;1.42;;
46355;SDS011;32066;49.474;11.106;2023-11-19T10:45:46;5.32;;;1.30;;
46355;SDS011;32066;49.474;11.106;2023-11-19T10:48:15;5.90;;;1.25;;
46355;SDS011;32066;49.474;11.106;2023-11-19T10:50:44;3.88;;;1.30;;
46355;SDS011;32066;49.474;11.106;2023-11-19T10:53:17;4.35;;;1.10;;
46355;SDS011;32066;49.474;11.106;2023-11-19T10:55:47;4.70;;;1.63;;
46355;SDS011;32066;49.474;11.106;2023-11-19T10:58:16;3.90;;;1.20;;
46355;SDS011;32066;49.474;11.106;2023-11-19T11:00:51;4.43;;;1.17;;
46355;SDS011;32066;49.474;11.106;2023-11-19T11:03:24;3.60;;;1.20;;
46355;SDS011;32066;49.474;11.106;2023-11-19T11:05:53;4.57;;;1.27;;
46355;SDS011;32066;49.474;11.106;2023-11-19T11:08:23;7.53;;;1.45;;
46355;SDS011;32066;49.474;11.106;2023-11-19T11:10:52;3.00;;;1.02;;
46355;SDS011;32066;49.474;11.106;2023-11-19T11:13:23;3.88;;;1.10;;
46355;SDS011;32066;49.474;11.106;2023-11-19T11:15:55;4.40;;;1.38;;
46355;SDS011;32066;49.474;11.106;2023-11-19T11:18:25;3.70;;;0.88;;
46355;SDS011;32066;49.474;11.106;2023-11-19T11:20:55;3.40;;;1.20;;
46355;SDS011;32066;49.474;11.106;2023-11-19T11:26:32;4.10;;;1.20;;
46355;SDS011;32066;49.474;11.106;2023-11-19T11:29:26;3.90;;;1.27;;
46355;SDS011;32066;49.474;11.106;2023-11-19T11:32:08;7.45;;;1.50;;
46355;SDS011;32066;49.474;11.106;2023-11-19T11:34:50;5.40;;;1.60;;
46355;SDS011;32066;49.474;11.106;2023-11-19T11:37:31;5.68;;;1.40;;
46355;SDS011;32066;49.474;11.106;2023-11-19T11:40:03;5.97;;;1.35;;
46355;SDS011;32066;49.474;11.106;2023-11-19T11:42:35;5.80;;;1.20;;
46355;SDS011;32066;49.474;11.106;2023-11-19T11:45:05;6.53;;;1.40;;
46355;SDS011;32066;49.474;11.106;2023-11-19T11:50:52;4.05;;;1.30;;
46355;SDS011;32066;49.474;11.106;2023-11-19T11:53:22;4.35;;;1.13;;
46355;SDS011;32066;49.474;11.106;2023-11-19T11:55:52;8.25;;;1.50;;
46355;SDS011;32066;49.474;11.106;2023-11-19T11:58:21;4.00;;;1.15;;
46355;SDS011;32066;49.474;11.106;2023-11-19T12:00:57;7.10;;;1.27;;
46355;SDS011;32066;49.474;11.106;2023-11-19T12:03:30;5.97;;;1.38;;
46355;SDS011;32066;49.474;11.106;2023-11-19T12:06:00;5.95;;;1.70;;
46355;SDS011;32066;49.474;11.106;2023-11-19T12:08:29;4.38;;;1.40;;
46355;SDS011;32066;49.474;11.106;2023-11-19T12:10:58;7.47;;;1.38;;
46355;SDS011;32066;49.474;11.106;2023-11-19T12:16:21;4.93;;;1.45;;
46355;SDS011;32066;49.474;11.106;2023-11-19T12:18:52;5.18;;;1.67;;
46355;SDS011;32066;49.474;11.106;2023-11-19T12:21:28;5.38;;;1.60;;
46355;SDS011;32066;49.474;11.106;2023-11-19T12:23:58;5.63;;;1.92;;
46355;SDS011;32066;49.474;11.106;2023-11-19T12:26:36;4.85;;;1.30;;
46355;SDS011;32066;49.474;11.106;2023-11-19T12:29:05;5.45;;;1.77;;
46355;SDS011;32066;49.474;11.106;2023-11-19T12:31:34;3.92;;;1.60;;
46355;SDS011;32066;49.474;11.106;2023-11-19T12:34:11;6.10;;;1.55;;
46355;SDS011;32066;49.474;11.106;2023-11-19T12:36:40;6.88;;;1.88;;
46355;SDS011;32066;49.474;11.106;2023-11-19T12:39:11;6.10;;;1.92;;
46355;SDS011;32066;49.474;11.106;2023-11-19T12:41:50;5.40;;;1.65;;
46355;SDS011;32066;49.474;11.106;2023-11-19T12:44:19;6.15;;;1.90;;
46355;SDS011;32066;49.474;11.106;2023-11-19T12:49:35;5.10;;;1.30;;
46355;SDS011;32066;49.474;11.106;2023-11-19T12:52:11;4.40;;;1.52;;
46355;SDS011;32066;49.474;11.106;2023-11-19T12:54:40;4.18;;;1.40;;
46355;SDS011;32066;49.474;11.106;2023-11-19T12:57:09;4.53;;;1.48;;
46355;SDS011;32066;49.474;11.106;2023-11-19T12:59:37;5.35;;;1.77;;
46355;SDS011;32066;49.474;11.106;2023-11-19T13:02:06;5.82;;;1.40;;
46355;SDS011;32066;49.474;11.106;2023-11-19T13:04:37;3.25;;;1.30;;
46355;SDS011;32066;49.474;11.106;2023-11-19T13:07:08;4.95;;;1.40;;
46355;SDS011;32066;49.474;11.106;2023-11-19T13:09:36;6.38;;;1.40;;
46355;SDS011;32066;49.474;11.106;2023-11-19T13:12:12;3.58;;;1.10;;
46355;SDS011;32066;49.474;11.106;2023-11-19T13:14:41;4.65;;;1.25;;
46355;SDS011;32066;49.474;11.106;2023-11-19T13:17:15;7.07;;;2.97;;
46355;SDS011;32066;49.474;11.106;2023-11-19T13:19:46;3.88;;;1.48;;
46355;SDS011;32066;49.474;11.106;2023-11-19T13:22:16;6.45;;;1.70;;
46355;SDS011;32066;49.474;11.106;2023-11-19T13:24:44;5.28;;;1.30;;
46355;SDS011;32066;49.474;11.106;2023-11-19T13:27:13;4.50;;;1.20;;
46355;SDS011;32066;49.474;11.106;2023-11-19T13:29:42;5.60;;;1.30;;
46355;SDS011;32066;49.474;11.106;2023-11-19T13:32:10;7.03;;;3.15;;
46355;SDS011;32066;49.474;11.106;2023-11-19T13:34:39;6.10;;;2.70;;
46355;SDS011;32066;49.474;11.106;2023-11-19T13:37:10;4.60;;;1.77;;
46355;SDS011;32066;49.474;11.106;2023-11-19T13:39:41;4.95;;;1.15;;
46355;SDS011;32066;49.474;11.106;2023-11-19T13:42:10;5.32;;;1.30;;
46355;SDS011;32066;49.474;11.106;2023-11-19T13:44:38;4.47;;;1.30;;
46355;SDS011;32066;49.474;11.106;2023-11-19T13:47:08;5.55;;;1.58;;
46355;SDS011;32066;49.474;11.106;2023-11-19T13:49:39;6.38;;;1.63;;
46355;SDS011;32066;49.474;11.106;2023-11-19T13:52:10;5.32;;;1.20;;
46355;SDS011;32066;49.474;11.106;2023-11-19T13:54:39;3.92;;;1.10;;
46355;SDS011;32066;49.474;11.106;2023-11-19T13:57:09;5.32;;;1.20;;
46355;SDS011;32066;49.474;11.106;2023-11-19T13:59:40;4.57;;;1.20;;
46355;SDS011;32066;49.474;11.106;2023-11-19T14:02:09;6.20;;;1.42;;
46355;SDS011;32066;49.474;11.106;2023-11-19T14:04:38;5.03;;;1.30;;
46355;SDS011;32066;49.474;11.106;2023-11-19T14:07:09;6.50;;;1.45;;
46355;SDS011;32066;49.474;11.106;2023-11-19T14:09:38;5.30;;;1.30;;
46355;SDS011;32066;49.474;11.106;2023-11-19T14:12:07;4.47;;;1.30;;
46355;SDS011;32066;49.474;11.106;2023-11-19T14:14:38;6.15;;;1.42;;
46355;SDS011;32066;49.474;11.106;2023-11-19T14:17:07;4.20;;;1.33;;
46355;SDS011;32066;49.474;11.106;2023-11-19T14:19:36;4.40;;;1.58;;
46355;SDS011;32066;49.474;11.106;2023-11-19T14:22:04;4.82;;;1.38;;
46355;SDS011;32066;49.474;11.106;2023-11-19T14:24:36;4.97;;;1.20;;
46355;SDS011;32066;49.474;11.106;2023-11-19T14:27:06;6.05;;;1.20;;
46355;SDS011;32066;49.474;11.106;2023-11-19T14:29:34;3.92;;;1.27;;
46355;SDS011;32066;49.474;11.106;2023-11-19T14:32:03;7.05;;;1.40;;
46355;SDS011;32066;49.474;11.106;2023-11-19T14:34:32;4.30;;;1.10;;
46355;SDS011;32066;49.474;11.106;2023-11-19T14:37:01;5.55;;;1.17;;
46355;SDS011;32066;49.474;11.106;2023-11-19T14:39:30;5.72;;;1.15;;
46355;SDS011;32066;49.474;11.106;2023-11-19T14:42:01;4.65;;;1.23;;
46355;SDS011;32066;49.474;11.106;2023-11-19T14:44:30;4.35;;;1.13;;
46355;SDS011;32066;49.474;11.106;2023-11-19T14:46:59;5.22;;;0.90;;
46355;SDS011;32066;49.474;11.106;2023-11-19T14:49:27;4.72;;;1.38;;
46355;SDS011;32066;49.474;11.106;2023-11-19T14:51:56;5.20;;;1.00;;
46355;SDS011;32066;49.474;11.106;2023-11-19T14:54:25;5.03;;;1.10;;
46355;SDS011;32066;49.474;11.106;2023-11-19T14:56:53;4.70;;;1.30;;
46355;SDS011;32066;49.474;11.106;2023-11-19T14:59:25;4.60;;;1.30;;
46355;SDS011;32066;49.474;11.106;2023-11-19T15:01:53;5.43;;;1.55;;
46355;SDS011;32066;49.474;11.106;2023-11-19T15:04:22;5.68;;;1.50;;